sensor_id;sensor_type;location;lat;lon;timestamp;pressure;altitude;pressure_sealevel;temperature
70668;BMP280;58242;51.250;-1.118;2023-09-07T00:02:15;100503.84;;;30.17
70668;BMP280;58242;51.250;-1.118;2023-09-07T00:04:40;100514.56;;;30.15
70668;BMP280;58242;51.250;-1.118;2023-09-07T00:07:05;100512.66;;;30.12
70668;BMP280;58242;51.250;-1.118;2023-09-07T00:09:30;100514.34;;;30.09
70668;BMP280;58242;51.250;-1.118;2023-09-07T00:11:56;100511.25;;;30.07
70668;BMP280;58242;51.250;-1.118;2023-09-07T00:14:21;100507.38;;;30.05
70668;BMP280;58242;51.250;-1.118;2023-09-07T00:16:46;100510.59;;;30.04
70668;BMP280;58242;51.250;-1.118;2023-09-07T00:19:12;100506.41;;;29.99
70668;BMP280;58242;51.250;-1.118;2023-09-07T00:21:37;100509.16;;;29.99
70668;BMP280;58242;51.250;-1.118;2023-09-07T00:24:02;100504.97;;;29.95
70668;BMP280;58242;51.250;-1.118;2023-09-07T00:26:30;100502.31;;;29.91
70668;BMP280;58242;51.250;-1.118;2023-09-07T00:28:56;100501.19;;;29.89
70668;BMP280;58242;51.250;-1.118;2023-09-07T00:31:21;100492.59;;;29.87
70668;BMP280;58242;51.250;-1.118;2023-09-07T00:33:46;100486.44;;;29.83
70668;BMP280;58242;51.250;-1.118;2023-09-07T00:36:11;100490.50;;;29.79
70668;BMP280;58242;51.250;-1.118;2023-09-07T00:38:37;100488.59;;;29.76
70668;BMP280;58242;51.250;-1.118;2023-09-07T00:41:02;100489.50;;;29.73
70668;BMP280;58242;51.250;-1.118;2023-09-07T00:43:27;100491.56;;;29.69
70668;BMP280;58242;51.250;-1.118;2023-09-07T00:45:53;100488.94;;;29.66
70668;BMP280;58242;51.250;-1.118;2023-09-07T00:48:19;100493.00;;;29.61
70668;BMP280;58242;51.250;-1.118;2023-09-07T00:50:45;100489.56;;;29.57
70668;BMP280;58242;51.250;-1.118;2023-09-07T00:53:10;100496.41;;;29.53
70668;BMP280;58242;51.250;-1.118;2023-09-07T00:55:36;100494.63;;;29.47
70668;BMP280;58242;51.250;-1.118;2023-09-07T00:58:04;100489.66;;;29.42
70668;BMP280;58242;51.250;-1.118;2023-09-07T01:00:29;100497.34;;;29.35
70668;BMP280;58242;51.250;-1.118;2023-09-07T01:02:55;100498.66;;;29.30
70668;BMP280;58242;51.250;-1.118;2023-09-07T01:05:29;100490.06;;;29.28
70668;BMP280;58242;51.250;-1.118;2023-09-07T01:07:59;100488.59;;;29.24
70668;BMP280;58242;51.250;-1.118;2023-09-07T01:10:26;100485.94;;;29.20
70668;BMP280;58242;51.250;-1.118;2023-09-07T01:12:51;100471.50;;;29.17
70668;BMP280;58242;51.250;-1.118;2023-09-07T01:15:16;100475.88;;;29.14
70668;BMP280;58242;51.250;-1.118;2023-09-07T01:17:43;100472.13;;;29.08
70668;BMP280;58242;51.250;-1.118;2023-09-07T01:20:09;100467.91;;;29.04
70668;BMP280;58242;51.250;-1.118;2023-09-07T01:22:36;100468.44;;;28.99
70668;BMP280;58242;51.250;-1.118;2023-09-07T01:25:02;100462.72;;;28.94
70668;BMP280;58242;51.250;-1.118;2023-09-07T01:27:28;100466.00;;;28.89
70668;BMP280;58242;51.250;-1.118;2023-09-07T01:29:53;100453.19;;;28.83
70668;BMP280;58242;51.250;-1.118;2023-09-07T01:32:19;100453.72;;;28.78
70668;BMP280;58242;51.250;-1.118;2023-09-07T01:34:45;100459.75;;;28.73
70668;BMP280;58242;51.250;-1.118;2023-09-07T01:37:10;100453.22;;;28.67
70668;BMP280;58242;51.250;-1.118;2023-09-07T01:39:35;100464.72;;;28.62
70668;BMP280;58242;51.250;-1.118;2023-09-07T01:42:02;100455.03;;;28.58
70668;BMP280;58242;51.250;-1.118;2023-09-07T01:44:27;100463.03;;;28.52
70668;BMP280;58242;51.250;-1.118;2023-09-07T01:46:55;100457.63;;;28.49
70668;BMP280;58242;51.250;-1.118;2023-09-07T01:49:20;100460.13;;;28.44
70668;BMP280;58242;51.250;-1.118;2023-09-07T01:51:45;100452.84;;;28.37
70668;BMP280;58242;51.250;-1.118;2023-09-07T01:54:11;100460.81;;;28.32
70668;BMP280;58242;51.250;-1.118;2023-09-07T01:56:37;100461.69;;;28.29
70668;BMP280;58242;51.250;-1.118;2023-09-07T01:59:02;100458.66;;;28.24
70668;BMP280;58242;51.250;-1.118;2023-09-07T02:01:30;100453.25;;;28.20
70668;BMP280;58242;51.250;-1.118;2023-09-07T02:03:56;100450.66;;;28.14
70668;BMP280;58242;51.250;-1.118;2023-09-07T02:06:21;100446.88;;;28.08
70668;BMP280;58242;51.250;-1.118;2023-09-07T02:08:46;100447.41;;;28.03
70668;BMP280;58242;51.250;-1.118;2023-09-07T02:11:12;100440.84;;;27.97
70668;BMP280;58242;51.250;-1.118;2023-09-07T02:13:37;100436.31;;;27.91
70668;BMP280;58242;51.250;-1.118;2023-09-07T02:16:04;100438.44;;;27.83
70668;BMP280;58242;51.250;-1.118;2023-09-07T02:18:30;100439.72;;;27.79
70668;BMP280;58242;51.250;-1.118;2023-09-07T02:21:03;100442.97;;;27.74
70668;BMP280;58242;51.250;-1.118;2023-09-07T02:23:32;100439.97;;;27.69
70668;BMP280;58242;51.250;-1.118;2023-09-07T02:25:58;100440.16;;;27.62
70668;BMP280;58242;51.250;-1.118;2023-09-07T02:28:25;100446.47;;;27.59
70668;BMP280;58242;51.250;-1.118;2023-09-07T02:30:51;100434.75;;;27.55
70668;BMP280;58242;51.250;-1.118;2023-09-07T02:33:16;100438.03;;;27.50
70668;BMP280;58242;51.250;-1.118;2023-09-07T02:35:42;100442.81;;;27.46
70668;BMP280;58242;51.250;-1.118;2023-09-07T02:38:07;100438.59;;;27.42
70668;BMP280;58242;51.250;-1.118;2023-09-07T02:40:33;100440.22;;;27.40
70668;BMP280;58242;51.250;-1.118;2023-09-07T02:42:58;100436.34;;;27.37
70668;BMP280;58242;51.250;-1.118;2023-09-07T02:45:23;100441.50;;;27.35
70668;BMP280;58242;51.250;-1.118;2023-09-07T02:47:48;100437.63;;;27.33
70668;BMP280;58242;51.250;-1.118;2023-09-07T02:50:16;100431.78;;;27.31
70668;BMP280;58242;51.250;-1.118;2023-09-07T02:52:43;100432.22;;;27.29
70668;BMP280;58242;51.250;-1.118;2023-09-07T02:55:08;100429.91;;;27.28
70668;BMP280;58242;51.250;-1.118;2023-09-07T02:57:34;100432.28;;;27.26
70668;BMP280;58242;51.250;-1.118;2023-09-07T03:00:00;100438.97;;;27.25
70668;BMP280;58242;51.250;-1.118;2023-09-07T03:02:25;100444.91;;;27.24
70668;BMP280;58242;51.250;-1.118;2023-09-07T03:04:54;100432.78;;;27.21
70668;BMP280;58242;51.250;-1.118;2023-09-07T03:07:20;100435.19;;;27.19
70668;BMP280;58242;51.250;-1.118;2023-09-07T03:09:45;100430.09;;;27.18
70668;BMP280;58242;51.250;-1.118;2023-09-07T03:12:10;100428.22;;;27.15
70668;BMP280;58242;51.250;-1.118;2023-09-07T03:14:35;100429.84;;;27.12
70668;BMP280;58242;51.250;-1.118;2023-09-07T03:17:01;100429.47;;;27.11
70668;BMP280;58242;51.250;-1.118;2023-09-07T03:19:27;100422.09;;;27.08
70668;BMP280;58242;51.250;-1.118;2023-09-07T03:21:52;100423.72;;;27.05
70668;BMP280;58242;51.250;-1.118;2023-09-07T03:24:19;100422.94;;;27.05
70668;BMP280;58242;51.250;-1.118;2023-09-07T03:26:45;100424.59;;;27.02
70668;BMP280;58242;51.250;-1.118;2023-09-07T03:29:10;100421.09;;;26.98
70668;BMP280;58242;51.250;-1.118;2023-09-07T03:31:36;100425.03;;;26.97
70668;BMP280;58242;51.250;-1.118;2023-09-07T03:34:01;100412.91;;;26.95
70668;BMP280;58242;51.250;-1.118;2023-09-07T03:36:26;100414.53;;;26.93
70668;BMP280;58242;51.250;-1.118;2023-09-07T03:38:51;100415.81;;;26.88
70668;BMP280;58242;51.250;-1.118;2023-09-07T03:41:17;100416.66;;;26.85
70668;BMP280;58242;51.250;-1.118;2023-09-07T03:43:42;100413.56;;;26.83
70668;BMP280;58242;51.250;-1.118;2023-09-07T03:46:07;100410.47;;;26.81
70668;BMP280;58242;51.250;-1.118;2023-09-07T03:48:33;100405.06;;;26.78
70668;BMP280;58242;51.250;-1.118;2023-09-07T03:50:58;100409.41;;;26.76
70668;BMP280;58242;51.250;-1.118;2023-09-07T03:53:23;100402.78;;;26.73
70668;BMP280;58242;51.250;-1.118;2023-09-07T03:55:48;100404.41;;;26.71
70668;BMP280;58242;51.250;-1.118;2023-09-07T03:58:14;100404.03;;;26.69
70668;BMP280;58242;51.250;-1.118;2023-09-07T04:00:40;100397.09;;;26.64
70668;BMP280;58242;51.250;-1.118;2023-09-07T04:03:06;100397.50;;;26.63
70668;BMP280;58242;51.250;-1.118;2023-09-07T04:05:32;100394.47;;;26.58
70668;BMP280;58242;51.250;-1.118;2023-09-07T04:07:57;100396.09;;;26.55
70668;BMP280;58242;51.250;-1.118;2023-09-07T04:10:22;100392.66;;;26.51
70668;BMP280;58242;51.250;-1.118;2023-09-07T04:12:48;100404.09;;;26.46
70668;BMP280;58242;51.250;-1.118;2023-09-07T04:15:13;100409.25;;;26.44
70668;BMP280;58242;51.250;-1.118;2023-09-07T04:17:38;100401.06;;;26.41
70668;BMP280;58242;51.250;-1.118;2023-09-07T04:20:08;100399.91;;;26.39
70668;BMP280;58242;51.250;-1.118;2023-09-07T04:22:34;100388.47;;;26.21
70668;BMP280;58242;51.250;-1.118;2023-09-07T04:25:00;100383.31;;;26.26
70668;BMP280;58242;51.250;-1.118;2023-09-07T04:27:25;100384.50;;;26.25
70668;BMP280;58242;51.250;-1.118;2023-09-07T04:29:51;100387.66;;;26.24
70668;BMP280;58242;51.250;-1.118;2023-09-07T04:32:16;100391.22;;;26.21
70668;BMP280;58242;51.250;-1.118;2023-09-07T04:34:41;100393.63;;;26.19
70668;BMP280;58242;51.250;-1.118;2023-09-07T04:37:07;100391.69;;;26.16
70668;BMP280;58242;51.250;-1.118;2023-09-07T04:39:32;100381.59;;;26.13
70668;BMP280;58242;51.250;-1.118;2023-09-07T04:41:58;100375.75;;;26.11
70668;BMP280;58242;51.250;-1.118;2023-09-07T04:44:25;100380.53;;;26.08
70668;BMP280;58242;51.250;-1.118;2023-09-07T04:46:51;100385.63;;;26.06
70668;BMP280;58242;51.250;-1.118;2023-09-07T04:49:17;100393.50;;;26.04
70668;BMP280;58242;51.250;-1.118;2023-09-07T04:51:43;100382.16;;;26.02
70668;BMP280;58242;51.250;-1.118;2023-09-07T04:54:08;100395.53;;;26.00
70668;BMP280;58242;51.250;-1.118;2023-09-07T04:56:33;100395.16;;;25.98
70668;BMP280;58242;51.250;-1.118;2023-09-07T04:58:59;100396.34;;;25.97
70668;BMP280;58242;51.250;-1.118;2023-09-07T05:01:24;100401.47;;;25.95
70668;BMP280;58242;51.250;-1.118;2023-09-07T05:03:49;100390.19;;;25.93
70668;BMP280;58242;51.250;-1.118;2023-09-07T05:06:16;100388.63;;;25.92
70668;BMP280;58242;51.250;-1.118;2023-09-07T05:08:41;100394.50;;;25.90
70668;BMP280;58242;51.250;-1.118;2023-09-07T05:11:07;100391.81;;;25.87
70668;BMP280;58242;51.250;-1.118;2023-09-07T05:13:32;100397.28;;;25.87
70668;BMP280;58242;51.250;-1.118;2023-09-07T05:15:59;100398.47;;;25.86
70668;BMP280;58242;51.250;-1.118;2023-09-07T05:18:25;100399.31;;;25.83
70668;BMP280;58242;51.250;-1.118;2023-09-07T05:20:51;100402.06;;;25.83
70668;BMP280;58242;51.250;-1.118;2023-09-07T05:23:20;100400.94;;;25.81
70668;BMP280;58242;51.250;-1.118;2023-09-07T05:25:46;100397.41;;;25.80
70668;BMP280;58242;51.250;-1.118;2023-09-07T05:28:13;100398.56;;;25.79
70668;BMP280;58242;51.250;-1.118;2023-09-07T05:30:39;100410.72;;;25.78
70668;BMP280;58242;51.250;-1.118;2023-09-07T05:33:04;100413.09;;;25.76
70668;BMP280;58242;51.250;-1.118;2023-09-07T05:35:30;100418.56;;;25.76
70668;BMP280;58242;51.250;-1.118;2023-09-07T05:37:57;100413.44;;;25.78
70668;BMP280;58242;51.250;-1.118;2023-09-07T05:40:23;100418.56;;;25.80
70668;BMP280;58242;51.250;-1.118;2023-09-07T05:42:48;100418.16;;;25.81
70668;BMP280;58242;51.250;-1.118;2023-09-07T05:45:13;100415.75;;;25.83
70668;BMP280;58242;51.250;-1.118;2023-09-07T05:47:38;100423.13;;;25.86
70668;BMP280;58242;51.250;-1.118;2023-09-07T05:50:04;100411.38;;;25.89
70668;BMP280;58242;51.250;-1.118;2023-09-07T05:52:30;100414.41;;;25.94
70668;BMP280;58242;51.250;-1.118;2023-09-07T05:54:55;100418.63;;;25.99
70668;BMP280;58242;51.250;-1.118;2023-09-07T05:57:20;100417.38;;;26.03
70668;BMP280;58242;51.250;-1.118;2023-09-07T05:59:45;100423.16;;;26.08
70668;BMP280;58242;51.250;-1.118;2023-09-07T06:02:11;100415.66;;;26.12
70668;BMP280;58242;51.250;-1.118;2023-09-07T06:04:36;100416.38;;;26.16
70668;BMP280;58242;51.250;-1.118;2023-09-07T06:07:02;100420.19;;;26.22
70668;BMP280;58242;51.250;-1.118;2023-09-07T06:09:27;100422.09;;;26.25
70668;BMP280;58242;51.250;-1.118;2023-09-07T06:11:54;100421.19;;;26.31
70668;BMP280;58242;51.250;-1.118;2023-09-07T06:14:19;100427.38;;;26.35
70668;BMP280;58242;51.250;-1.118;2023-09-07T06:16:45;100425.31;;;26.42
70668;BMP280;58242;51.250;-1.118;2023-09-07T06:19:10;100421.31;;;26.47
70668;BMP280;58242;51.250;-1.118;2023-09-07T06:21:35;100423.19;;;26.53
70668;BMP280;58242;51.250;-1.118;2023-09-07T06:24:01;100419.94;;;26.58
70668;BMP280;58242;51.250;-1.118;2023-09-07T06:26:26;100408.81;;;26.65
70668;BMP280;58242;51.250;-1.118;2023-09-07T06:28:51;100409.91;;;26.71
70668;BMP280;58242;51.250;-1.118;2023-09-07T06:31:16;100413.69;;;26.76
70668;BMP280;58242;51.250;-1.118;2023-09-07T06:33:42;100413.28;;;26.78
70668;BMP280;58242;51.250;-1.118;2023-09-07T06:36:07;100413.63;;;26.80
70668;BMP280;58242;51.250;-1.118;2023-09-07T06:38:32;100411.25;;;26.82
70668;BMP280;58242;51.250;-1.118;2023-09-07T06:40:57;100411.94;;;26.86
70668;BMP280;58242;51.250;-1.118;2023-09-07T06:43:23;100414.22;;;26.91
70668;BMP280;58242;51.250;-1.118;2023-09-07T06:45:48;100423.47;;;26.96
70668;BMP280;58242;51.250;-1.118;2023-09-07T06:48:13;100421.84;;;26.99
70668;BMP280;58242;51.250;-1.118;2023-09-07T06:50:39;100417.09;;;27.03
70668;BMP280;58242;51.250;-1.118;2023-09-07T06:53:04;100421.31;;;27.07
70668;BMP280;58242;51.250;-1.118;2023-09-07T06:55:29;100416.97;;;27.10
70668;BMP280;58242;51.250;-1.118;2023-09-07T06:57:55;100422.81;;;27.11
70668;BMP280;58242;51.250;-1.118;2023-09-07T07:00:21;100422.31;;;27.16
70668;BMP280;58242;51.250;-1.118;2023-09-07T07:02:46;100427.66;;;27.23
70668;BMP280;58242;51.250;-1.118;2023-09-07T07:05:12;100429.13;;;27.28
70668;BMP280;58242;51.250;-1.118;2023-09-07T07:07:38;100428.19;;;27.34
70668;BMP280;58242;51.250;-1.118;2023-09-07T07:10:03;100426.44;;;27.43
70668;BMP280;58242;51.250;-1.118;2023-09-07T07:12:30;100420.22;;;27.58
70668;BMP280;58242;51.250;-1.118;2023-09-07T07:14:59;100425.56;;;27.80
70668;BMP280;58242;51.250;-1.118;2023-09-07T07:17:25;100418.88;;;28.13
70668;BMP280;58242;51.250;-1.118;2023-09-07T07:19:50;100412.75;;;28.52
70668;BMP280;58242;51.250;-1.118;2023-09-07T07:22:15;100410.41;;;28.94
70668;BMP280;58242;51.250;-1.118;2023-09-07T07:24:41;100415.50;;;29.35
70668;BMP280;58242;51.250;-1.118;2023-09-07T07:27:06;100412.97;;;29.77
70668;BMP280;58242;51.250;-1.118;2023-09-07T07:29:31;100418.69;;;30.19
70668;BMP280;58242;51.250;-1.118;2023-09-07T07:31:56;100418.16;;;30.57
70668;BMP280;58242;51.250;-1.118;2023-09-07T07:34:22;100415.19;;;30.84
70668;BMP280;58242;51.250;-1.118;2023-09-07T07:36:47;100411.25;;;31.15
70668;BMP280;58242;51.250;-1.118;2023-09-07T07:39:12;100413.63;;;31.46
70668;BMP280;58242;51.250;-1.118;2023-09-07T07:41:38;100427.00;;;31.77
70668;BMP280;58242;51.250;-1.118;2023-09-07T07:44:03;100423.56;;;32.03
70668;BMP280;58242;51.250;-1.118;2023-09-07T07:46:29;100417.63;;;32.30
70668;BMP280;58242;51.250;-1.118;2023-09-07T07:48:54;100420.94;;;32.64
70668;BMP280;58242;51.250;-1.118;2023-09-07T07:51:19;100421.69;;;32.99
70668;BMP280;58242;51.250;-1.118;2023-09-07T07:53:44;100412.13;;;33.35
70668;BMP280;58242;51.250;-1.118;2023-09-07T07:56:19;100413.53;;;33.71
70668;BMP280;58242;51.250;-1.118;2023-09-07T07:58:45;100416.78;;;34.02
70668;BMP280;58242;51.250;-1.118;2023-09-07T08:01:15;100412.94;;;34.31
70668;BMP280;58242;51.250;-1.118;2023-09-07T08:03:41;100414.28;;;34.58
70668;BMP280;58242;51.250;-1.118;2023-09-07T08:06:06;100407.56;;;34.87
70668;BMP280;58242;51.250;-1.118;2023-09-07T08:08:32;100414.03;;;35.21
70668;BMP280;58242;51.250;-1.118;2023-09-07T08:10:57;100406.69;;;35.60
70668;BMP280;58242;51.250;-1.118;2023-09-07T08:13:25;100409.56;;;35.99
70668;BMP280;58242;51.250;-1.118;2023-09-07T08:15:50;100415.69;;;36.37
70668;BMP280;58242;51.250;-1.118;2023-09-07T08:18:15;100410.53;;;36.69
70668;BMP280;58242;51.250;-1.118;2023-09-07T08:20:40;100407.44;;;37.06
70668;BMP280;58242;51.250;-1.118;2023-09-07T08:23:06;100414.22;;;37.49
70668;BMP280;58242;51.250;-1.118;2023-09-07T08:25:33;100410.25;;;37.91
70668;BMP280;58242;51.250;-1.118;2023-09-07T08:27:58;100417.63;;;38.29
70668;BMP280;58242;51.250;-1.118;2023-09-07T08:30:25;100411.72;;;38.68
70668;BMP280;58242;51.250;-1.118;2023-09-07T08:32:51;100412.88;;;39.08
70668;BMP280;58242;51.250;-1.118;2023-09-07T08:35:16;100414.72;;;39.43
70668;BMP280;58242;51.250;-1.118;2023-09-07T08:37:42;100417.78;;;39.72
70668;BMP280;58242;51.250;-1.118;2023-09-07T08:40:08;100412.94;;;39.99
70668;BMP280;58242;51.250;-1.118;2023-09-07T08:42:37;100406.75;;;40.32
70668;BMP280;58242;51.250;-1.118;2023-09-07T08:45:03;100407.41;;;40.65
70668;BMP280;58242;51.250;-1.118;2023-09-07T08:47:33;100410.78;;;40.97
70668;BMP280;58242;51.250;-1.118;2023-09-07T08:49:59;100407.03;;;41.24
70668;BMP280;58242;51.250;-1.118;2023-09-07T08:52:25;100399.97;;;41.51
70668;BMP280;58242;51.250;-1.118;2023-09-07T08:54:50;100401.81;;;41.78
70668;BMP280;58242;51.250;-1.118;2023-09-07T08:57:16;100399.78;;;42.01
70668;BMP280;58242;51.250;-1.118;2023-09-07T08:59:43;100395.69;;;42.26
70668;BMP280;58242;51.250;-1.118;2023-09-07T09:02:09;100396.91;;;42.53
70668;BMP280;58242;51.250;-1.118;2023-09-07T09:04:36;100391.31;;;42.89
70668;BMP280;58242;51.250;-1.118;2023-09-07T09:07:01;100394.63;;;43.24
70668;BMP280;58242;51.250;-1.118;2023-09-07T09:09:29;100398.16;;;43.60
70668;BMP280;58242;51.250;-1.118;2023-09-07T09:11:54;100387.69;;;43.86
70668;BMP280;58242;51.250;-1.118;2023-09-07T09:14:20;100386.53;;;44.07
70668;BMP280;58242;51.250;-1.118;2023-09-07T09:16:53;100397.16;;;44.26
70668;BMP280;58242;51.250;-1.118;2023-09-07T09:19:19;100386.53;;;44.45
70668;BMP280;58242;51.250;-1.118;2023-09-07T09:21:45;100380.69;;;44.68
70668;BMP280;58242;51.250;-1.118;2023-09-07T09:24:11;100391.47;;;44.90
70668;BMP280;58242;51.250;-1.118;2023-09-07T09:26:37;100390.34;;;45.05
70668;BMP280;58242;51.250;-1.118;2023-09-07T09:29:02;100389.28;;;45.28
70668;BMP280;58242;51.250;-1.118;2023-09-07T09:31:29;100392.28;;;45.63
70668;BMP280;58242;51.250;-1.118;2023-09-07T09:33:55;100403.88;;;45.99
70668;BMP280;58242;51.250;-1.118;2023-09-07T09:36:20;100381.50;;;46.28
70668;BMP280;58242;51.250;-1.118;2023-09-07T09:38:50;100388.41;;;46.47
70668;BMP280;58242;51.250;-1.118;2023-09-07T09:41:16;100389.59;;;46.59
70668;BMP280;58242;51.250;-1.118;2023-09-07T09:43:42;100386.69;;;46.79
70668;BMP280;58242;51.250;-1.118;2023-09-07T09:46:10;100390.72;;;47.05
70668;BMP280;58242;51.250;-1.118;2023-09-07T09:48:37;100391.56;;;47.35
70668;BMP280;58242;51.250;-1.118;2023-09-07T09:51:04;100383.28;;;47.73
70668;BMP280;58242;51.250;-1.118;2023-09-07T09:53:30;100390.69;;;48.12
70668;BMP280;58242;51.250;-1.118;2023-09-07T09:55:55;100386.81;;;48.54
70668;BMP280;58242;51.250;-1.118;2023-09-07T09:58:21;100387.44;;;48.83
70668;BMP280;58242;51.250;-1.118;2023-09-07T10:00:53;100383.34;;;49.08
70668;BMP280;58242;51.250;-1.118;2023-09-07T10:03:41;100374.09;;;49.31
70668;BMP280;58242;51.250;-1.118;2023-09-07T10:06:17;100370.38;;;49.53
70668;BMP280;58242;51.250;-1.118;2023-09-07T10:08:53;100373.84;;;49.68
70668;BMP280;58242;51.250;-1.118;2023-09-07T10:11:26;100380.00;;;49.81
70668;BMP280;58242;51.250;-1.118;2023-09-07T10:13:57;100367.22;;;49.89
70668;BMP280;58242;51.250;-1.118;2023-09-07T10:16:23;100366.16;;;50.01
70668;BMP280;58242;51.250;-1.118;2023-09-07T10:18:48;100370.44;;;50.26
70668;BMP280;58242;51.250;-1.118;2023-09-07T10:21:13;100372.88;;;50.46
70668;BMP280;58242;51.250;-1.118;2023-09-07T10:26:11;100363.34;;;50.68
70668;BMP280;58242;51.250;-1.118;2023-09-07T10:28:36;100354.09;;;50.76
70668;BMP280;58242;51.250;-1.118;2023-09-07T10:31:06;100355.22;;;50.90
70668;BMP280;58242;51.250;-1.118;2023-09-07T10:33:34;100359.06;;;51.02
70668;BMP280;58242;51.250;-1.118;2023-09-07T10:36:00;100349.00;;;51.01
70668;BMP280;58242;51.250;-1.118;2023-09-07T10:38:26;100350.19;;;50.98
70668;BMP280;58242;51.250;-1.118;2023-09-07T10:40:56;100345.81;;;50.97
70668;BMP280;58242;51.250;-1.118;2023-09-07T10:43:24;100346.66;;;51.06
70668;BMP280;58242;51.250;-1.118;2023-09-07T10:45:49;100333.06;;;51.14
70668;BMP280;58242;51.250;-1.118;2023-09-07T10:48:16;100337.34;;;51.32
70668;BMP280;58242;51.250;-1.118;2023-09-07T10:50:45;100339.31;;;51.39
70668;BMP280;58242;51.250;-1.118;2023-09-07T10:53:14;100339.47;;;51.41
70668;BMP280;58242;51.250;-1.118;2023-09-07T10:55:41;100323.41;;;51.36
70668;BMP280;58242;51.250;-1.118;2023-09-07T10:58:08;100332.53;;;51.34
70668;BMP280;58242;51.250;-1.118;2023-09-07T11:00:34;100327.28;;;51.31
70668;BMP280;58242;51.250;-1.118;2023-09-07T11:03:07;100333.59;;;51.29
70668;BMP280;58242;51.250;-1.118;2023-09-07T11:05:34;100323.41;;;51.36
70668;BMP280;58242;51.250;-1.118;2023-09-07T11:08:02;100321.03;;;51.41
70668;BMP280;58242;51.250;-1.118;2023-09-07T11:10:28;100321.94;;;51.44
70668;BMP280;58242;51.250;-1.118;2023-09-07T11:12:53;100329.91;;;51.55
70668;BMP280;58242;51.250;-1.118;2023-09-07T11:15:19;100333.00;;;51.75
70668;BMP280;58242;51.250;-1.118;2023-09-07T11:17:44;100324.34;;;51.92
70668;BMP280;58242;51.250;-1.118;2023-09-07T11:20:11;100330.66;;;51.99
70668;BMP280;58242;51.250;-1.118;2023-09-07T11:22:36;100326.00;;;52.13
70668;BMP280;58242;51.250;-1.118;2023-09-07T11:25:05;100325.25;;;52.40
70668;BMP280;58242;51.250;-1.118;2023-09-07T11:27:31;100321.47;;;52.75
70668;BMP280;58242;51.250;-1.118;2023-09-07T11:29:57;100326.25;;;53.00
70668;BMP280;58242;51.250;-1.118;2023-09-07T11:32:23;100323.44;;;53.30
70668;BMP280;58242;51.250;-1.118;2023-09-07T11:34:49;100307.03;;;53.60
70668;BMP280;58242;51.250;-1.118;2023-09-07T11:37:16;100303.16;;;53.76
70668;BMP280;58242;51.250;-1.118;2023-09-07T11:39:42;100299.22;;;53.81
70668;BMP280;58242;51.250;-1.118;2023-09-07T11:42:07;100304.53;;;53.95
70668;BMP280;58242;51.250;-1.118;2023-09-07T11:44:33;100293.59;;;54.12
70668;BMP280;58242;51.250;-1.118;2023-09-07T11:46:58;100304.31;;;54.23
70668;BMP280;58242;51.250;-1.118;2023-09-07T11:49:23;100295.25;;;54.26
70668;BMP280;58242;51.250;-1.118;2023-09-07T11:51:49;100295.22;;;54.36
70668;BMP280;58242;51.250;-1.118;2023-09-07T11:54:15;100295.25;;;54.47
70668;BMP280;58242;51.250;-1.118;2023-09-07T11:56:40;100291.22;;;54.40
70668;BMP280;58242;51.250;-1.118;2023-09-07T11:59:08;100291.38;;;54.22
70668;BMP280;58242;51.250;-1.118;2023-09-07T12:01:34;100295.53;;;54.10
70668;BMP280;58242;51.250;-1.118;2023-09-07T12:04:00;100286.41;;;54.22
70668;BMP280;58242;51.250;-1.118;2023-09-07T12:06:25;100284.03;;;54.51
70668;BMP280;58242;51.250;-1.118;2023-09-07T12:09:01;100288.34;;;54.72
70668;BMP280;58242;51.250;-1.118;2023-09-07T12:11:27;100281.75;;;54.81
70668;BMP280;58242;51.250;-1.118;2023-09-07T12:13:52;100277.69;;;54.95
70668;BMP280;58242;51.250;-1.118;2023-09-07T12:16:18;100271.47;;;55.09
70668;BMP280;58242;51.250;-1.118;2023-09-07T12:18:43;100273.22;;;55.14
70668;BMP280;58242;51.250;-1.118;2023-09-07T12:21:08;100266.09;;;55.26
70668;BMP280;58242;51.250;-1.118;2023-09-07T12:23:33;100268.34;;;55.50
70668;BMP280;58242;51.250;-1.118;2023-09-07T12:26:00;100262.44;;;55.82
70668;BMP280;58242;51.250;-1.118;2023-09-07T12:28:26;100265.81;;;56.14
70668;BMP280;58242;51.250;-1.118;2023-09-07T12:30:51;100276.41;;;56.23
70668;BMP280;58242;51.250;-1.118;2023-09-07T12:33:16;100268.38;;;56.32
70668;BMP280;58242;51.250;-1.118;2023-09-07T12:35:42;100268.44;;;56.46
70668;BMP280;58242;51.250;-1.118;2023-09-07T12:38:07;100259.88;;;56.59
70668;BMP280;58242;51.250;-1.118;2023-09-07T12:40:35;100267.91;;;56.73
70668;BMP280;58242;51.250;-1.118;2023-09-07T12:43:01;100268.97;;;56.80
70668;BMP280;58242;51.250;-1.118;2023-09-07T12:45:27;100274.53;;;56.89
70668;BMP280;58242;51.250;-1.118;2023-09-07T12:47:52;100270.63;;;56.96
70668;BMP280;58242;51.250;-1.118;2023-09-07T12:50:17;100261.03;;;57.04
70668;BMP280;58242;51.250;-1.118;2023-09-07T12:52:42;100265.63;;;57.09
70668;BMP280;58242;51.250;-1.118;2023-09-07T12:55:08;100263.28;;;57.06
70668;BMP280;58242;51.250;-1.118;2023-09-07T12:57:34;100272.53;;;57.04
70668;BMP280;58242;51.250;-1.118;2023-09-07T12:59:59;100265.97;;;57.15
70668;BMP280;58242;51.250;-1.118;2023-09-07T13:02:25;100259.94;;;57.22
70668;BMP280;58242;51.250;-1.118;2023-09-07T13:04:50;100254.25;;;57.24
70668;BMP280;58242;51.250;-1.118;2023-09-07T13:07:15;100248.84;;;57.17
70668;BMP280;58242;51.250;-1.118;2023-09-07T13:09:43;100256.16;;;57.07
70668;BMP280;58242;51.250;-1.118;2023-09-07T13:12:08;100261.13;;;56.93
70668;BMP280;58242;51.250;-1.118;2023-09-07T13:14:33;100248.41;;;56.85
70668;BMP280;58242;51.250;-1.118;2023-09-07T13:16:59;100253.53;;;56.73
70668;BMP280;58242;51.250;-1.118;2023-09-07T13:19:24;100248.03;;;56.53
70668;BMP280;58242;51.250;-1.118;2023-09-07T13:21:49;100244.81;;;56.23
70668;BMP280;58242;51.250;-1.118;2023-09-07T13:24:14;100239.13;;;55.65
70668;BMP280;58242;51.250;-1.118;2023-09-07T13:26:40;100230.81;;;54.90
70668;BMP280;58242;51.250;-1.118;2023-09-07T13:29:06;100226.63;;;54.17
70668;BMP280;58242;51.250;-1.118;2023-09-07T13:31:31;100225.28;;;53.36
70668;BMP280;58242;51.250;-1.118;2023-09-07T13:33:57;100230.72;;;52.64
70668;BMP280;58242;51.250;-1.118;2023-09-07T13:36:22;100225.25;;;52.01
70668;BMP280;58242;51.250;-1.118;2023-09-07T13:38:47;100225.91;;;51.46
70668;BMP280;58242;51.250;-1.118;2023-09-07T13:41:13;100221.66;;;50.94